createdAt,value
2023-05-19T00:01:15.052Z,2.20
2023-05-19T00:03:52.525Z,2.78
2023-05-19T00:06:27.331Z,2.67
2023-05-19T00:09:07.414Z,2.13
2023-05-19T00:11:37.962Z,2.38
2023-05-19T00:14:06.925Z,2.85
2023-05-19T00:16:34.496Z,1.88
2023-05-19T00:19:03.660Z,2.63
2023-05-19T00:21:31.391Z,2.30
2023-05-19T00:23:58.627Z,2.70
2023-05-19T00:26:26.902Z,2.63
2023-05-19T00:28:54.060Z,2.22
2023-05-19T00:31:20.719Z,2.80
2023-05-19T00:33:47.258Z,2.60
2023-05-19T00:36:13.987Z,2.63
2023-05-19T00:38:40.649Z,2.60
2023-05-19T00:41:07.604Z,2.28
2023-05-19T00:43:34.384Z,2.40
2023-05-19T00:46:01.285Z,2.78
2023-05-19T00:48:27.999Z,2.47
2023-05-19T00:51:02.002Z,2.17
2023-05-19T00:53:29.454Z,2.53
2023-05-19T00:55:56.385Z,2.58
2023-05-19T00:58:23.841Z,2.70
2023-05-19T01:00:50.637Z,2.40
2023-05-19T01:03:20.532Z,2.63
2023-05-19T01:05:49.834Z,2.80
2023-05-19T01:08:16.469Z,2.58
2023-05-19T01:10:43.083Z,2.90
2023-05-19T01:13:09.723Z,3.70
2023-05-19T01:16:00.009Z,2.90
2023-05-19T01:18:36.805Z,2.60
2023-05-19T01:24:06.321Z,2.28
2023-05-19T01:27:17.997Z,2.78
2023-05-19T01:30:12.066Z,2.83
2023-05-19T01:32:41.784Z,3.00
2023-05-19T01:35:10.323Z,2.55
2023-05-19T01:37:38.759Z,2.33
2023-05-19T01:40:07.918Z,2.53
2023-05-19T01:42:37.988Z,2.80
2023-05-19T01:45:11.392Z,3.47
2023-05-19T01:47:41.941Z,2.15
2023-05-19T01:50:09.057Z,2.20
2023-05-19T01:52:35.606Z,2.30
2023-05-19T01:55:02.156Z,2.55
2023-05-19T01:57:40.962Z,2.58
2023-05-19T02:00:20.555Z,2.80
2023-05-19T02:03:17.553Z,2.33
2023-05-19T02:05:52.318Z,2.55
2023-05-19T02:08:28.821Z,2.10
2023-05-19T02:11:02.955Z,2.08
2023-05-19T02:13:34.246Z,2.20
2023-05-19T02:16:05.603Z,2.35
2023-05-19T02:18:33.281Z,3.05
2023-05-19T02:20:59.843Z,2.33
2023-05-19T02:23:26.397Z,2.80
2023-05-19T02:25:53.162Z,2.45
2023-05-19T02:28:19.647Z,2.75
2023-05-19T02:30:46.141Z,2.42
2023-05-19T02:33:12.821Z,2.33
2023-05-19T02:35:39.218Z,2.30
2023-05-19T02:38:05.763Z,2.28
2023-05-19T02:40:32.909Z,2.55
2023-05-19T02:42:59.970Z,2.15
2023-05-19T02:45:28.696Z,2.35
2023-05-19T02:47:55.526Z,2.20
2023-05-19T02:50:22.502Z,2.60
2023-05-19T02:52:49.001Z,2.25
2023-05-19T02:55:17.130Z,2.22
2023-05-19T02:57:43.921Z,2.15
2023-05-19T03:00:10.907Z,2.08
2023-05-19T03:02:37.493Z,2.05
2023-05-19T03:05:04.419Z,2.25
2023-05-19T03:07:30.952Z,2.67
2023-05-19T03:09:57.444Z,2.33
2023-05-19T03:12:24.499Z,2.33
2023-05-19T03:14:51.117Z,2.15
2023-05-19T03:17:17.660Z,2.28
2023-05-19T03:19:44.262Z,2.13
2023-05-19T03:22:10.873Z,2.40
2023-05-19T03:24:37.495Z,2.15
2023-05-19T03:27:05.812Z,2.35
2023-05-19T03:29:32.350Z,2.35
2023-05-19T03:31:59.881Z,2.20
2023-05-19T03:34:26.447Z,2.20
2023-05-19T03:36:53.399Z,2.13
2023-05-19T03:39:19.842Z,2.78
2023-05-19T03:41:46.483Z,2.08
2023-05-19T03:44:12.875Z,2.15
2023-05-19T03:46:39.446Z,1.60
2023-05-19T03:49:06.340Z,2.05
2023-05-19T03:51:34.693Z,1.90
2023-05-19T03:54:01.164Z,2.33
2023-05-19T03:56:28.847Z,2.10
2023-05-19T03:58:55.388Z,2.22
2023-05-19T04:01:22.054Z,2.30
2023-05-19T04:03:48.548Z,2.30
2023-05-19T04:06:15.128Z,1.70
2023-05-19T04:08:41.947Z,2.00
2023-05-19T04:11:08.417Z,2.40
2023-05-19T04:13:35.075Z,2.63
2023-05-19T04:16:01.878Z,2.50
2023-05-19T04:18:29.170Z,2.42
2023-05-19T04:20:56.186Z,2.63
2023-05-19T04:23:22.632Z,2.80
2023-05-19T04:25:49.778Z,2.30
2023-05-19T04:28:16.525Z,3.03
2023-05-19T04:30:43.091Z,2.38
2023-05-19T04:33:09.714Z,2.20
2023-05-19T04:35:38.093Z,2.33
2023-05-19T04:38:04.643Z,2.10
2023-05-19T04:40:31.658Z,1.90
2023-05-19T04:42:59.086Z,2.65
2023-05-19T04:45:26.097Z,2.30
2023-05-19T04:47:52.836Z,2.60
2023-05-19T04:50:19.493Z,1.95
2023-05-19T04:52:45.932Z,2.30
2023-05-19T04:55:13.014Z,1.90
2023-05-19T04:57:40.185Z,1.88
2023-05-19T05:00:14.386Z,2.38
2023-05-19T05:02:42.932Z,2.72
2023-05-19T05:05:10.124Z,2.22
2023-05-19T05:07:36.667Z,3.42
2023-05-19T05:10:03.981Z,2.42
2023-05-19T05:12:31.274Z,2.42
2023-05-19T05:14:58.301Z,2.15
2023-05-19T05:17:25.713Z,2.38
2023-05-19T05:19:52.855Z,2.83
2023-05-19T05:22:19.696Z,2.80
2023-05-19T05:24:46.616Z,2.13
2023-05-19T05:27:13.644Z,3.25
2023-05-19T05:29:40.119Z,2.15
2023-05-19T05:32:07.874Z,2.67
2023-05-19T05:34:35.615Z,3.15
2023-05-19T05:37:02.112Z,2.10
2023-05-19T05:39:28.745Z,2.40
2023-05-19T05:41:55.458Z,2.92
2023-05-19T05:44:21.884Z,2.13
2023-05-19T05:46:48.663Z,2.60
2023-05-19T05:49:15.645Z,2.20
2023-05-19T05:51:46.409Z,2.10
2023-05-19T05:54:22.932Z,2.05
2023-05-19T05:56:49.713Z,2.35
2023-05-19T05:59:16.493Z,2.45
2023-05-19T06:01:43.896Z,2.40
2023-05-19T06:04:10.439Z,2.20
2023-05-19T06:06:38.023Z,2.05
2023-05-19T06:09:05.420Z,1.98
2023-05-19T06:11:32.406Z,2.95
2023-05-19T06:13:58.974Z,2.53
2023-05-19T06:16:25.870Z,2.20
2023-05-19T06:18:52.512Z,2.33
2023-05-19T06:21:19.096Z,2.13
2023-05-19T06:23:45.651Z,2.53
2023-05-19T06:26:12.187Z,2.88
2023-05-19T06:28:38.814Z,2.35
2023-05-19T06:31:05.413Z,2.70
2023-05-19T06:33:31.906Z,2.25
2023-05-19T06:35:59.846Z,2.50
2023-05-19T06:38:26.382Z,2.55
2023-05-19T06:40:53.090Z,2.50
2023-05-19T06:43:19.575Z,2.55
2023-05-19T06:45:46.599Z,2.53
2023-05-19T06:48:13.095Z,2.63
2023-05-19T06:50:39.617Z,2.92
2023-05-19T06:53:06.205Z,2.28
2023-05-19T06:55:33.559Z,2.10
2023-05-19T06:58:01.859Z,2.42
2023-05-19T07:00:28.373Z,2.83
2023-05-19T07:02:55.065Z,2.80
2023-05-19T07:05:21.772Z,2.38
2023-05-19T07:07:48.264Z,2.10
2023-05-19T07:10:14.707Z,2.85
2023-05-19T07:12:41.777Z,2.45
2023-05-19T07:15:08.574Z,2.17
2023-05-19T07:17:35.033Z,2.78
2023-05-19T07:20:01.653Z,2.80
2023-05-19T07:22:28.262Z,2.53
2023-05-19T07:24:56.970Z,2.33
2023-05-19T07:27:23.538Z,1.90
2023-05-19T07:29:50.064Z,1.83
2023-05-19T07:32:16.606Z,2.50
2023-05-19T07:34:43.225Z,2.65
2023-05-19T07:37:09.738Z,1.90
2023-05-19T07:39:36.300Z,1.90
2023-05-19T07:42:03.070Z,2.40
2023-05-19T07:44:31.375Z,1.73
2023-05-19T07:46:58.084Z,2.20
2023-05-19T07:49:24.628Z,2.13
2023-05-19T07:51:51.237Z,3.00
2023-05-19T07:54:18.322Z,2.05
2023-05-19T07:56:44.989Z,2.33
2023-05-19T07:59:11.533Z,2.40
2023-05-19T08:01:38.014Z,2.03
2023-05-19T08:04:05.414Z,2.08
2023-05-19T08:06:32.196Z,2.17
2023-05-19T08:08:58.813Z,1.88
2023-05-19T08:11:26.273Z,1.92
2023-05-19T08:13:52.853Z,2.92
2023-05-19T08:16:19.383Z,1.65
2023-05-19T08:18:46.112Z,1.80
2023-05-19T08:21:12.814Z,1.75
2023-05-19T08:23:39.253Z,1.77
2023-05-19T08:26:05.950Z,1.77
2023-05-19T08:28:32.472Z,1.70
2023-05-19T08:30:59.042Z,2.80
2023-05-19T08:33:25.772Z,1.67
2023-05-19T08:35:52.323Z,1.75
2023-05-19T08:38:18.808Z,1.65
2023-05-19T08:40:47.395Z,1.77
2023-05-19T08:43:14.050Z,2.10
2023-05-19T08:45:44.069Z,1.88
2023-05-19T08:48:11.866Z,1.50
2023-05-19T08:50:41.195Z,1.38
2023-05-19T08:56:10.518Z,1.48
2023-05-19T08:58:42.518Z,1.60
2023-05-19T09:01:10.027Z,1.48
2023-05-19T09:03:39.749Z,1.45
2023-05-19T09:06:12.471Z,1.55
2023-05-19T09:08:40.177Z,1.60
2023-05-19T09:11:07.392Z,1.50
2023-05-19T09:13:33.822Z,1.58
2023-05-19T09:16:00.930Z,1.60
2023-05-19T09:18:27.796Z,2.03
2023-05-19T09:21:00.740Z,1.83
2023-05-19T09:23:33.971Z,1.55
2023-05-19T09:26:08.192Z,1.98
2023-05-19T09:28:36.651Z,1.73
2023-05-19T09:31:05.032Z,1.95
2023-05-19T09:33:33.803Z,1.30
2023-05-19T09:36:01.138Z,1.30
2023-05-19T09:38:27.771Z,1.70
2023-05-19T09:40:57.528Z,1.75
2023-05-19T09:43:24.172Z,1.30
2023-05-19T09:46:01.285Z,2.05
2023-05-19T09:48:28.069Z,1.30
2023-05-19T09:50:55.056Z,1.67
2023-05-19T09:53:22.451Z,1.88
2023-05-19T09:55:49.935Z,1.63
2023-05-19T09:58:18.637Z,1.48
2023-05-19T10:00:46.812Z,1.45
2023-05-19T10:03:13.734Z,1.67
2023-05-19T10:05:41.682Z,1.50
2023-05-19T10:08:10.195Z,1.52
2023-05-19T10:10:39.920Z,1.60
2023-05-19T10:13:07.796Z,1.73
2023-05-19T10:15:40.894Z,1.80
2023-05-19T10:18:17.612Z,1.70
2023-05-19T10:23:10.703Z,1.17
2023-05-19T10:25:38.317Z,1.35
2023-05-19T10:28:11.771Z,1.80
2023-05-19T10:30:41.769Z,1.77
2023-05-19T10:33:12.316Z,1.95
2023-05-19T10:36:17.681Z,2.10
2023-05-19T10:39:07.584Z,1.50
2023-05-19T10:41:47.059Z,1.95
2023-05-19T10:44:53.364Z,1.90
2023-05-19T10:47:24.763Z,1.90
2023-05-19T10:49:53.907Z,1.77
2023-05-19T10:52:23.491Z,1.40
2023-05-19T10:54:51.425Z,1.55
2023-05-19T10:57:19.772Z,1.45
2023-05-19T10:59:46.938Z,1.20
2023-05-19T11:02:42.602Z,1.50
2023-05-19T11:05:14.953Z,1.65
2023-05-19T11:07:46.016Z,1.60
2023-05-19T11:10:12.783Z,1.40
2023-05-19T11:12:44.928Z,1.40
2023-05-19T11:15:15.755Z,1.55
2023-05-19T11:20:25.886Z,1.38
2023-05-19T11:23:08.912Z,1.58
2023-05-19T11:25:49.526Z,1.63
2023-05-19T11:28:19.476Z,1.52
2023-05-19T11:30:50.371Z,1.70
2023-05-19T11:33:20.063Z,1.42
2023-05-19T11:35:49.451Z,1.48
2023-05-19T11:38:18.578Z,1.55
2023-05-19T11:40:45.377Z,1.30
2023-05-19T11:43:11.960Z,1.50
2023-05-19T11:45:39.149Z,1.30
2023-05-19T11:48:06.925Z,1.25
2023-05-19T11:50:35.237Z,1.10
2023-05-19T11:53:02.030Z,1.40
2023-05-19T11:55:29.606Z,1.40
2023-05-19T11:58:05.168Z,1.30
2023-05-19T12:00:40.275Z,1.73
2023-05-19T12:03:08.481Z,1.25
2023-05-19T12:05:45.893Z,1.50
2023-05-19T12:08:13.186Z,1.52
2023-05-19T12:10:40.695Z,1.27
2023-05-19T12:13:10.799Z,1.40
2023-05-19T12:15:38.699Z,1.30
2023-05-19T12:18:06.032Z,1.27
2023-05-19T12:20:35.390Z,1.25
2023-05-19T12:23:02.448Z,1.23
2023-05-19T12:25:30.153Z,1.50
2023-05-19T12:28:02.886Z,1.67
2023-05-19T12:30:31.346Z,0.93
2023-05-19T12:32:58.286Z,1.13
2023-05-19T12:35:29.567Z,1.42
2023-05-19T12:37:56.273Z,1.42
2023-05-19T12:40:22.915Z,1.05
2023-05-19T12:42:51.977Z,1.02
2023-05-19T12:45:21.889Z,1.20
2023-05-19T12:47:50.187Z,1.05
2023-05-19T12:50:16.709Z,1.23
2023-05-19T12:52:48.075Z,1.20
2023-05-19T12:55:16.497Z,1.50
2023-05-19T12:57:45.293Z,1.42
2023-05-19T13:00:17.570Z,1.30
2023-05-19T13:03:01.748Z,1.13
2023-05-19T13:05:29.949Z,1.17
2023-05-19T13:08:01.816Z,1.38
2023-05-19T13:10:29.581Z,1.35
2023-05-19T13:12:57.133Z,1.23
2023-05-19T13:15:26.261Z,1.67
2023-05-19T13:17:54.028Z,1.00
2023-05-19T13:20:21.849Z,0.88
2023-05-19T13:22:49.345Z,1.33
2023-05-19T13:25:16.789Z,1.70
2023-05-19T13:27:45.919Z,1.20
2023-05-19T13:30:12.761Z,1.15
2023-05-19T13:32:39.446Z,1.23
2023-05-19T13:35:06.625Z,1.17
2023-05-19T13:37:33.575Z,1.38
2023-05-19T13:40:00.226Z,1.40
2023-05-19T13:42:26.810Z,1.50
2023-05-19T13:44:56.578Z,1.85
2023-05-19T13:47:24.004Z,1.20
2023-05-19T13:49:50.851Z,1.33
2023-05-19T13:52:18.349Z,1.88
2023-05-19T13:54:45.103Z,1.33
2023-05-19T13:57:18.647Z,1.60
2023-05-19T14:00:00.304Z,1.23
2023-05-19T14:02:29.783Z,1.48
2023-05-19T14:04:56.970Z,1.42
2023-05-19T14:07:23.659Z,1.30
2023-05-19T14:09:51.132Z,1.50
2023-05-19T14:12:17.853Z,1.45
2023-05-19T14:14:44.899Z,1.60
2023-05-19T14:17:11.896Z,1.23
2023-05-19T14:19:38.342Z,1.40
2023-05-19T14:22:04.996Z,1.40
2023-05-19T14:24:31.610Z,1.42
2023-05-19T14:26:58.021Z,1.40
2023-05-19T14:29:24.567Z,1.73
2023-05-19T14:31:51.053Z,1.83
2023-05-19T14:34:20.864Z,1.45
2023-05-19T14:36:48.647Z,1.65
2023-05-19T14:39:15.513Z,1.40
2023-05-19T14:41:41.994Z,1.13
2023-05-19T14:44:08.659Z,1.40
2023-05-19T14:46:35.160Z,1.23
2023-05-19T14:49:01.980Z,1.25
2023-05-19T14:51:28.569Z,1.73
2023-05-19T14:53:55.290Z,1.42
2023-05-19T14:56:22.628Z,1.17
2023-05-19T14:58:49.110Z,1.15
2023-05-19T15:01:15.679Z,1.58
2023-05-19T15:03:42.169Z,1.10
2023-05-19T15:06:10.608Z,1.40
2023-05-19T15:08:37.837Z,1.42
2023-05-19T15:11:04.716Z,1.30
2023-05-19T15:13:31.279Z,1.23
2023-05-19T15:16:12.385Z,1.48
2023-05-19T15:18:42.710Z,1.42
2023-05-19T15:21:09.340Z,1.55
2023-05-19T15:23:36.072Z,1.50
2023-05-19T15:26:02.721Z,1.10
2023-05-19T15:28:29.425Z,1.38
2023-05-19T15:30:56.135Z,1.38
2023-05-19T15:33:22.835Z,1.40
2023-05-19T15:35:51.648Z,1.70
2023-05-19T15:38:21.503Z,1.77
2023-05-19T15:40:48.161Z,1.70
2023-05-19T15:43:14.930Z,1.40
2023-05-19T15:45:41.448Z,1.70
2023-05-19T15:48:08.315Z,2.03
2023-05-19T15:50:35.205Z,1.63
2023-05-19T15:53:02.175Z,1.50
2023-05-19T15:55:28.762Z,1.70
2023-05-19T15:57:55.369Z,1.50
2023-05-19T16:00:21.940Z,1.63
2023-05-19T16:02:48.752Z,1.70
2023-05-19T16:05:15.419Z,1.60
2023-05-19T16:07:42.219Z,1.63
2023-05-19T16:10:09.348Z,1.55
2023-05-19T16:12:36.722Z,1.92
2023-05-19T16:15:03.888Z,1.80
2023-05-19T16:17:30.833Z,2.00
2023-05-19T16:19:57.404Z,1.95
2023-05-19T16:22:24.813Z,1.42
2023-05-19T16:24:52.119Z,1.70
2023-05-19T16:27:18.812Z,1.80
2023-05-19T16:29:45.365Z,1.50
2023-05-19T16:32:12.380Z,1.60
2023-05-19T16:34:39.222Z,1.90
2023-05-19T16:37:05.809Z,1.60
2023-05-19T16:39:32.449Z,1.42
2023-05-19T16:41:58.988Z,1.48
2023-05-19T16:44:25.647Z,1.60
2023-05-19T16:46:52.478Z,1.58
2023-05-19T16:49:18.903Z,1.60
2023-05-19T16:51:47.568Z,1.60
2023-05-19T16:54:15.472Z,1.80
2023-05-19T16:56:42.147Z,1.98
2023-05-19T16:59:09.376Z,1.73
2023-05-19T17:01:36.129Z,1.60
2023-05-19T17:04:02.791Z,1.60
2023-05-19T17:06:29.322Z,1.70
2023-05-19T17:08:55.924Z,1.70
2023-05-19T17:11:22.509Z,1.80
2023-05-19T17:13:49.127Z,1.88
2023-05-19T17:16:15.954Z,1.80
2023-05-19T17:18:43.647Z,1.60
2023-05-19T17:21:10.621Z,1.77
2023-05-19T17:23:37.908Z,1.90
2023-05-19T17:26:04.774Z,2.00
2023-05-19T17:28:31.744Z,2.13
2023-05-19T17:30:58.458Z,1.60
2023-05-19T17:33:25.021Z,1.70
2023-05-19T17:35:51.798Z,1.60
2023-05-19T17:38:18.340Z,1.70
2023-05-19T17:40:44.876Z,2.05
2023-05-19T17:43:11.568Z,1.77
2023-05-19T17:45:38.023Z,2.00
2023-05-19T17:48:05.217Z,1.65
2023-05-19T17:50:31.954Z,2.10
2023-05-19T17:52:59.086Z,1.95
2023-05-19T17:55:29.833Z,2.05
2023-05-19T18:00:23.903Z,2.10
2023-05-19T18:02:50.916Z,2.00
2023-05-19T18:05:17.778Z,1.90
2023-05-19T18:07:44.611Z,1.90
2023-05-19T18:10:13.514Z,2.22
2023-05-19T18:12:40.040Z,1.90
2023-05-19T18:15:06.963Z,2.15
2023-05-19T18:17:33.566Z,2.13
2023-05-19T18:20:00.219Z,1.75
2023-05-19T18:22:26.834Z,2.17
2023-05-19T18:24:53.482Z,2.28
2023-05-19T18:27:19.964Z,2.10
2023-05-19T18:29:46.475Z,1.88
2023-05-19T18:32:14.638Z,1.85
2023-05-19T18:34:41.282Z,2.00
2023-05-19T18:37:07.731Z,2.53
2023-05-19T18:39:34.277Z,1.88
2023-05-19T18:42:01.649Z,2.13
2023-05-19T18:44:29.367Z,1.63
2023-05-19T18:46:55.935Z,2.35
2023-05-19T18:49:24.766Z,2.40
2023-05-19T18:51:51.419Z,1.88
2023-05-19T18:54:18.133Z,1.92
2023-05-19T18:56:44.814Z,2.08
2023-05-19T18:59:11.520Z,2.75
2023-05-19T19:01:38.212Z,2.28
2023-05-19T19:04:05.536Z,2.20
2023-05-19T19:06:32.098Z,2.15
2023-05-19T19:08:58.801Z,2.03
2023-05-19T19:11:26.261Z,2.03
2023-05-19T19:13:55.406Z,1.90
2023-05-19T19:16:22.487Z,2.33
2023-05-19T19:18:49.266Z,2.05
2023-05-19T19:21:15.915Z,2.08
2023-05-19T19:23:42.548Z,2.53
2023-05-19T19:26:09.581Z,2.13
2023-05-19T19:28:36.484Z,2.22
2023-05-19T19:31:03.099Z,2.10
2023-05-19T19:33:29.590Z,2.00
2023-05-19T19:35:56.025Z,2.65
2023-05-19T19:38:22.521Z,2.50
2023-05-19T19:40:51.411Z,2.13
2023-05-19T19:43:18.089Z,2.33
2023-05-19T19:45:44.804Z,2.35
2023-05-19T19:48:12.189Z,2.30
2023-05-19T19:50:38.813Z,2.80
2023-05-19T19:53:05.560Z,2.67
2023-05-19T19:55:32.124Z,2.42
2023-05-19T19:57:58.645Z,2.60
2023-05-19T20:00:25.602Z,2.50
2023-05-19T20:03:04.506Z,2.28
2023-05-19T20:05:32.009Z,2.70
2023-05-19T20:07:58.625Z,2.22
2023-05-19T20:10:25.152Z,2.38
2023-05-19T20:12:52.190Z,2.53
2023-05-19T20:15:18.819Z,2.30
2023-05-19T20:17:45.880Z,3.00
2023-05-19T20:20:13.036Z,2.67
2023-05-19T20:22:39.571Z,2.45
2023-05-19T20:25:06.528Z,2.70
2023-05-19T20:27:33.010Z,2.33
2023-05-19T20:29:59.672Z,2.20
2023-05-19T20:32:26.526Z,2.45
2023-05-19T20:34:53.005Z,2.55
2023-05-19T20:37:20.938Z,2.47
2023-05-19T20:39:47.689Z,2.65
2023-05-19T20:42:14.259Z,2.45
2023-05-19T20:44:40.825Z,2.65
2023-05-19T20:47:10.532Z,3.20
2023-05-19T20:49:36.977Z,2.85
2023-05-19T20:52:03.769Z,2.60
2023-05-19T20:54:30.519Z,2.38
2023-05-19T20:56:57.218Z,3.03
2023-05-19T20:59:23.678Z,2.58
2023-05-19T21:01:50.166Z,2.80
2023-05-19T21:04:16.969Z,2.70
2023-05-19T21:06:43.817Z,2.60
2023-05-19T21:09:10.716Z,3.00
2023-05-19T21:11:37.243Z,2.58
2023-05-19T21:14:04.205Z,2.78
2023-05-19T21:16:31.324Z,2.80
2023-05-19T21:18:58.106Z,3.00
2023-05-19T21:21:24.679Z,2.75
2023-05-19T21:23:51.173Z,2.60
2023-05-19T21:26:17.861Z,2.83
2023-05-19T21:28:44.393Z,2.47
2023-05-19T21:31:10.959Z,2.90
2023-05-19T21:33:37.580Z,3.05
2023-05-19T21:36:04.280Z,2.80
2023-05-19T21:38:30.821Z,3.35
2023-05-19T21:40:57.288Z,3.00
2023-05-19T21:43:23.906Z,3.03
2023-05-19T21:45:50.438Z,3.03
2023-05-19T21:48:17.006Z,3.17
2023-05-19T21:50:43.549Z,3.25
2023-05-19T21:53:10.093Z,2.88
2023-05-19T21:55:36.532Z,3.10
2023-05-19T21:58:03.076Z,2.92
2023-05-19T22:00:29.668Z,3.50
2023-05-19T22:02:56.316Z,2.70
2023-05-19T22:05:22.876Z,3.10
2023-05-19T22:07:49.399Z,2.95
2023-05-19T22:10:15.909Z,3.15
2023-05-19T22:12:42.432Z,2.78
2023-05-19T22:15:09.693Z,2.85
2023-05-19T22:17:36.692Z,3.00
2023-05-19T22:20:03.396Z,3.00
2023-05-19T22:22:29.911Z,2.70
2023-05-19T22:24:56.664Z,2.85
2023-05-19T22:27:23.219Z,2.85
2023-05-19T22:29:49.945Z,3.03
2023-05-19T22:32:18.308Z,3.17
2023-05-19T22:34:45.166Z,3.10
2023-05-19T22:37:12.098Z,2.78
2023-05-19T22:39:39.417Z,3.20
2023-05-19T22:42:06.227Z,3.00
2023-05-19T22:44:32.712Z,3.50
2023-05-19T22:46:59.339Z,3.00
2023-05-19T22:49:27.350Z,3.03
2023-05-19T22:51:53.813Z,2.78
2023-05-19T22:54:20.597Z,3.35
2023-05-19T22:56:48.717Z,2.65
2023-05-19T22:59:17.616Z,3.15
2023-05-19T23:01:46.353Z,2.75
2023-05-19T23:04:14.015Z,3.10
2023-05-19T23:06:40.871Z,3.45
2023-05-19T23:09:07.664Z,3.22
2023-05-19T23:11:35.704Z,2.75
2023-05-19T23:14:02.229Z,3.38
2023-05-19T23:16:28.878Z,3.22
2023-05-19T23:18:55.458Z,2.85
2023-05-19T23:21:21.968Z,3.40
2023-05-19T23:23:48.588Z,2.88
2023-05-19T23:26:15.081Z,2.92
2023-05-19T23:28:42.397Z,3.03
2023-05-19T23:31:09.161Z,3.17
2023-05-19T23:33:35.823Z,2.90
2023-05-19T23:36:09.702Z,2.83
2023-05-19T23:38:37.265Z,3.53
2023-05-19T23:41:05.025Z,3.08
2023-05-19T23:43:34.540Z,3.35
2023-05-19T23:46:01.232Z,3.22
2023-05-19T23:48:31.472Z,3.03
2023-05-19T23:50:58.647Z,3.03
2023-05-19T23:53:25.546Z,3.15
2023-05-19T23:55:52.535Z,3.15
2023-05-19T23:58:19.234Z,3.10
